createdAt,value
2023-03-11T00:02:18.969Z,0
2023-03-11T00:02:59.423Z,0
2023-03-11T00:03:40.814Z,0
2023-03-11T00:04:21.348Z,0
2023-03-11T00:05:01.957Z,0
2023-03-11T00:05:42.446Z,0
2023-03-11T00:06:22.927Z,0
2023-03-11T00:07:03.437Z,0
2023-03-11T00:07:44.912Z,0
2023-03-11T00:13:46.248Z,0
2023-03-11T00:14:27.468Z,0
2023-03-11T00:15:07.980Z,0
2023-03-11T00:15:48.506Z,0
2023-03-11T00:16:29.087Z,0
2023-03-11T00:17:09.541Z,0
2023-03-11T00:17:50.078Z,0
2023-03-11T00:21:06.401Z,0
2023-03-11T00:21:47.636Z,0
2023-03-11T00:22:28.151Z,0
2023-03-11T00:23:08.702Z,0
2023-03-11T00:23:49.201Z,0
2023-03-11T00:24:29.705Z,0
2023-03-11T00:25:10.223Z,0
2023-03-11T00:25:50.777Z,0
2023-03-11T00:26:31.300Z,0
2023-03-11T00:30:31.149Z,0
2023-03-11T00:31:11.595Z,0
2023-03-11T00:31:52.086Z,0
2023-03-11T00:32:32.687Z,0
2023-03-11T00:33:13.128Z,0
2023-03-11T00:33:53.653Z,0
2023-03-11T00:34:34.178Z,0
2023-03-11T00:35:14.692Z,0
2023-03-11T00:35:55.329Z,0
2023-03-11T00:36:35.788Z,0
2023-03-11T00:41:32.678Z,0
2023-03-11T00:42:13.193Z,0
2023-03-11T00:42:53.678Z,0
2023-03-11T00:43:34.853Z,0
2023-03-11T00:44:15.393Z,0
2023-03-11T00:44:55.957Z,0
2023-03-11T00:45:37.304Z,0
2023-03-11T00:49:31.998Z,0
2023-03-11T00:50:12.580Z,0
2023-03-11T00:50:53.798Z,0
2023-03-11T00:51:36.336Z,0
2023-03-11T00:52:16.842Z,0
2023-03-11T00:56:52.717Z,0
2023-03-11T00:57:33.249Z,0
2023-03-11T00:58:15.402Z,0
2023-03-11T00:58:58.399Z,0
2023-03-11T01:01:13.938Z,0
2023-03-11T01:01:55.503Z,0
2023-03-11T01:02:36.014Z,0
2023-03-11T01:03:16.508Z,0
2023-03-11T01:05:34.377Z,0
2023-03-11T01:06:15.536Z,0
2023-03-11T01:06:56.062Z,0
2023-03-11T01:07:36.599Z,0
2023-03-11T01:08:17.138Z,0
2023-03-11T01:08:57.709Z,0
2023-03-11T01:09:38.245Z,0
2023-03-11T01:10:18.800Z,0
2023-03-11T01:10:59.432Z,0
2023-03-11T01:13:53.437Z,0
2023-03-11T01:14:34.501Z,0
2023-03-11T01:15:15.019Z,0
2023-03-11T01:15:55.619Z,0
2023-03-11T01:16:36.092Z,0
2023-03-11T01:17:16.605Z,0
2023-03-11T01:17:57.120Z,0
2023-03-11T01:18:37.653Z,0
2023-03-11T01:19:18.166Z,0
2023-03-11T01:27:06.018Z,0
2023-03-11T01:27:46.536Z,0
2023-03-11T01:28:27.052Z,0
2023-03-11T01:29:07.591Z,0
2023-03-11T01:29:48.135Z,0
2023-03-11T01:30:28.675Z,0
2023-03-11T01:31:09.221Z,0
2023-03-11T01:31:49.757Z,0
2023-03-11T01:32:30.329Z,0
2023-03-11T01:39:15.565Z,0
2023-03-11T01:39:56.081Z,0
2023-03-11T01:43:49.780Z,0
2023-03-11T01:44:30.307Z,0
2023-03-11T01:45:10.807Z,0
2023-03-11T01:45:51.362Z,0
2023-03-11T01:46:31.966Z,0
2023-03-11T01:47:12.398Z,0
2023-03-11T01:47:52.886Z,0
2023-03-11T01:48:33.406Z,0
2023-03-11T01:49:13.926Z,0
2023-03-11T01:49:55.151Z,0
2023-03-11T01:55:19.911Z,0
2023-03-11T01:56:00.415Z,0
2023-03-11T01:56:41.647Z,0
2023-03-11T01:57:22.159Z,0
2023-03-11T01:58:02.686Z,0
2023-03-11T01:58:43.204Z,0
2023-03-11T01:59:23.722Z,0
2023-03-11T02:00:04.235Z,0
2023-03-11T02:00:44.758Z,0
2023-03-11T02:05:08.379Z,0
2023-03-11T02:05:48.956Z,0
2023-03-11T02:06:29.466Z,0
2023-03-11T02:07:09.982Z,0
2023-03-11T02:07:50.537Z,0
2023-03-11T02:08:31.055Z,0
2023-03-11T02:09:11.567Z,0
2023-03-11T02:09:52.087Z,0
2023-03-11T02:10:33.386Z,0
2023-03-11T02:15:58.530Z,0
2023-03-11T02:16:39.101Z,0
2023-03-11T02:17:19.646Z,0
2023-03-11T02:18:00.164Z,0
2023-03-11T02:18:40.744Z,0
2023-03-11T02:19:21.271Z,0
2023-03-11T02:20:01.844Z,0
2023-03-11T02:20:42.336Z,0
2023-03-11T02:21:22.820Z,0
2023-03-11T02:22:03.341Z,0
2023-03-11T02:24:43.063Z,0
2023-03-11T02:25:23.597Z,0
2023-03-11T02:26:08.804Z,0
2023-03-11T02:26:51.978Z,0
2023-03-11T02:29:05.268Z,0
2023-03-11T02:29:45.800Z,0
2023-03-11T02:30:27.262Z,0
2023-03-11T02:31:09.713Z,0
2023-03-11T02:33:23.640Z,0
2023-03-11T02:34:04.138Z,0
2023-03-11T02:34:44.651Z,0
2023-03-11T02:35:25.189Z,0
2023-03-11T02:36:05.766Z,0
2023-03-11T02:38:04.853Z,0
2023-03-11T02:38:45.367Z,0
2023-03-11T02:39:25.891Z,0
2023-03-11T02:40:06.401Z,0
2023-03-11T02:40:46.920Z,0
2023-03-11T02:41:27.472Z,0
2023-03-11T02:42:08.000Z,0
2023-03-11T02:42:48.506Z,0
2023-03-11T02:43:29.019Z,0
2023-03-11T02:44:09.537Z,0
2023-03-11T02:49:34.661Z,0
2023-03-11T02:50:15.224Z,0
2023-03-11T02:50:55.720Z,0
2023-03-11T02:51:36.261Z,0
2023-03-11T02:52:16.777Z,0
2023-03-11T02:52:57.269Z,0
2023-03-11T02:53:37.796Z,0
2023-03-11T02:54:18.312Z,0
2023-03-11T02:54:58.829Z,0
2023-03-11T02:55:39.339Z,0
2023-03-11T02:56:19.894Z,0
2023-03-11T03:00:24.821Z,0
2023-03-11T03:01:05.394Z,0
2023-03-11T03:01:45.929Z,0
2023-03-11T03:02:26.459Z,0
2023-03-11T03:03:06.989Z,0
2023-03-11T03:03:47.557Z,0
2023-03-11T03:04:28.098Z,0
2023-03-11T03:05:08.570Z,0
2023-03-11T03:05:49.110Z,0
2023-03-11T03:06:29.639Z,0
2023-03-11T03:13:14.858Z,0
2023-03-11T03:13:55.377Z,0
2023-03-11T03:14:35.927Z,0
2023-03-11T03:15:16.437Z,0
2023-03-11T03:15:56.952Z,0
2023-03-11T03:16:37.523Z,0
2023-03-11T03:17:18.260Z,0
2023-03-11T03:17:58.741Z,0
2023-03-11T03:18:39.282Z,0
2023-03-11T03:19:20.594Z,0
2023-03-11T03:24:44.764Z,0
2023-03-11T03:25:25.312Z,0
2023-03-11T03:26:05.836Z,0
2023-03-11T03:26:46.548Z,0
2023-03-11T03:27:27.719Z,0
2023-03-11T03:28:08.198Z,0
2023-03-11T03:28:48.717Z,0
2023-03-11T03:29:29.238Z,0
2023-03-11T03:30:09.758Z,0
2023-03-11T03:35:54.067Z,0
2023-03-11T03:36:34.508Z,0
2023-03-11T03:37:15.053Z,0
2023-03-11T03:37:55.609Z,0
2023-03-11T03:38:36.099Z,0
2023-03-11T03:39:16.605Z,0
2023-03-11T03:39:57.138Z,0
2023-03-11T03:40:37.654Z,0
2023-03-11T03:41:18.193Z,0
2023-03-11T03:46:43.108Z,0
2023-03-11T03:47:23.733Z,0
2023-03-11T03:48:04.290Z,0
2023-03-11T03:48:44.801Z,0
2023-03-11T03:49:25.323Z,0
2023-03-11T03:50:05.868Z,0
2023-03-11T03:50:46.386Z,0
2023-03-11T03:51:26.903Z,0
2023-03-11T03:52:07.444Z,0
2023-03-11T03:52:47.965Z,0
2023-03-11T03:58:50.502Z,0
2023-03-11T03:59:31.013Z,0
2023-03-11T04:00:11.544Z,0
2023-03-11T04:00:52.051Z,0
2023-03-11T04:01:32.565Z,0
2023-03-11T04:02:13.144Z,0
2023-03-11T04:02:53.610Z,0
2023-03-11T04:03:34.139Z,0
2023-03-11T04:04:14.673Z,0
2023-03-11T04:07:33.873Z,0
2023-03-11T04:08:14.387Z,0
2023-03-11T04:08:54.932Z,0
2023-03-11T04:09:35.425Z,0
2023-03-11T04:10:16.856Z,0
2023-03-11T04:10:57.389Z,0
2023-03-11T04:11:37.895Z,0
2023-03-11T04:12:18.424Z,0
2023-03-11T04:12:58.938Z,0
2023-03-11T04:18:02.374Z,0
2023-03-11T04:18:42.902Z,0
2023-03-11T04:19:23.419Z,0
2023-03-11T04:20:03.933Z,0
2023-03-11T04:20:44.445Z,0
2023-03-11T04:21:24.977Z,0
2023-03-11T04:22:05.476Z,0
2023-03-11T04:22:46.000Z,0
2023-03-11T04:23:26.554Z,0
2023-03-11T04:24:07.070Z,0
2023-03-11T04:28:52.361Z,0
2023-03-11T04:29:32.909Z,0
2023-03-11T04:30:14.131Z,0
2023-03-11T04:30:54.696Z,0
2023-03-11T04:31:35.165Z,0
2023-03-11T04:32:15.685Z,0
2023-03-11T04:34:28.433Z,0
2023-03-11T04:35:08.893Z,0
2023-03-11T04:35:50.264Z,0
2023-03-11T04:36:30.798Z,0
2023-03-11T04:37:11.314Z,0
2023-03-11T04:39:24.330Z,0
2023-03-11T04:40:04.850Z,0
2023-03-11T04:40:45.380Z,0
2023-03-11T04:41:26.462Z,0
2023-03-11T04:42:06.998Z,0
2023-03-11T04:42:47.537Z,0
2023-03-11T04:43:28.096Z,0
2023-03-11T04:44:08.600Z,0
2023-03-11T04:44:49.116Z,0
2023-03-11T04:48:49.417Z,0
2023-03-11T04:49:29.930Z,0
2023-03-11T04:50:10.456Z,0
2023-03-11T04:50:50.997Z,0
2023-03-11T04:51:31.521Z,0
2023-03-11T04:52:12.051Z,0
2023-03-11T04:52:53.097Z,0
2023-03-11T04:53:33.679Z,0
2023-03-11T04:54:14.194Z,0
2023-03-11T04:58:59.480Z,0
2023-03-11T04:59:40.003Z,0
2023-03-11T05:00:20.527Z,0
2023-03-11T05:01:01.039Z,0
2023-03-11T05:01:41.594Z,0
2023-03-11T05:02:22.083Z,0
2023-03-11T05:03:02.664Z,0
2023-03-11T05:03:43.128Z,0
2023-03-11T05:04:23.752Z,0
2023-03-11T05:05:04.179Z,0
2023-03-11T05:10:31.750Z,0
2023-03-11T05:11:09.879Z,0
2023-03-11T05:11:50.396Z,0
2023-03-11T05:12:31.582Z,0
2023-03-11T05:13:12.092Z,0
2023-03-11T05:13:53.296Z,0
2023-03-11T05:14:33.889Z,0
2023-03-11T05:15:14.412Z,0
2023-03-11T05:20:39.463Z,4
2023-03-11T05:21:19.978Z,4
2023-03-11T05:22:00.509Z,4
2023-03-11T05:22:41.063Z,4
2023-03-11T05:23:21.615Z,0
2023-03-11T05:24:02.168Z,4
2023-03-11T05:24:42.739Z,4
2023-03-11T05:25:23.806Z,4
2023-03-11T05:27:52.471Z,8
2023-03-11T05:28:33.846Z,8
2023-03-11T05:29:14.306Z,8
2023-03-11T05:29:54.826Z,8
2023-03-11T05:30:35.379Z,12
2023-03-11T05:31:15.911Z,12
2023-03-11T05:33:13.832Z,16
2023-03-11T05:33:55.013Z,16
2023-03-11T05:34:35.535Z,20
2023-03-11T05:35:16.044Z,24
2023-03-11T05:35:56.650Z,28
2023-03-11T05:36:37.082Z,28
2023-03-11T05:37:17.624Z,36
2023-03-11T05:37:58.115Z,36
2023-03-11T05:41:52.080Z,64
2023-03-11T05:42:32.634Z,72
2023-03-11T05:43:13.207Z,76
2023-03-11T05:43:53.723Z,84
2023-03-11T05:44:34.248Z,92
2023-03-11T05:45:14.751Z,100
2023-03-11T05:45:55.285Z,108
2023-03-11T05:46:35.874Z,116
2023-03-11T05:47:16.339Z,124
2023-03-11T05:47:56.836Z,132
2023-03-11T05:54:42.671Z,244
2023-03-11T05:55:23.201Z,260
2023-03-11T05:56:03.762Z,272
2023-03-11T05:56:44.370Z,288
2023-03-11T05:57:24.857Z,304
2023-03-11T05:58:05.459Z,324
2023-03-11T05:58:45.951Z,340
2023-03-11T05:59:26.520Z,352
2023-03-11T06:00:07.057Z,372
2023-03-11T06:03:25.802Z,460
2023-03-11T06:04:06.450Z,484
2023-03-11T06:04:46.985Z,504
2023-03-11T06:05:27.431Z,528
2023-03-11T06:06:07.864Z,552
2023-03-11T06:06:48.368Z,580
2023-03-11T06:07:28.902Z,612
2023-03-11T06:08:09.426Z,640
2023-03-11T06:08:49.980Z,672
2023-03-11T06:09:30.439Z,708
2023-03-11T06:14:16.206Z,900
2023-03-11T06:14:56.703Z,944
2023-03-11T06:15:37.216Z,1000
2023-03-11T06:16:17.877Z,1060
2023-03-11T06:16:58.340Z,1124
2023-03-11T06:17:39.700Z,1184
2023-03-11T06:18:20.191Z,1248
2023-03-11T06:19:00.939Z,1312
2023-03-11T06:25:05.639Z,1876
2023-03-11T06:25:46.161Z,1924
2023-03-11T06:27:59.448Z,1968
2023-03-11T06:28:39.935Z,1980
2023-03-11T06:29:20.501Z,1980
2023-03-11T06:30:01.036Z,1952
2023-03-11T06:30:41.555Z,1932
2023-03-11T06:31:22.162Z,1916
2023-03-11T06:32:02.656Z,1920
2023-03-11T06:32:43.235Z,1920
2023-03-11T06:33:23.742Z,1900
2023-03-11T06:34:04.254Z,1864
2023-03-11T06:40:09.693Z,1964
2023-03-11T06:40:50.343Z,1996
2023-03-11T06:41:30.908Z,2004
2023-03-11T06:42:11.462Z,2016
2023-03-11T06:44:24.612Z,2052
2023-03-11T06:45:05.213Z,2068
2023-03-11T06:45:45.700Z,2064
2023-03-11T06:46:26.247Z,2080
2023-03-11T06:47:07.607Z,2080
2023-03-11T06:47:49.081Z,2084
2023-03-11T06:48:29.614Z,2096
2023-03-11T06:54:31.202Z,2192
2023-03-11T06:55:11.737Z,2224
2023-03-11T06:55:52.294Z,2248
2023-03-11T06:56:32.849Z,2272
2023-03-11T06:57:13.387Z,2288
2023-03-11T06:57:53.909Z,2288
2023-03-11T06:58:34.420Z,2272
2023-03-11T06:59:14.956Z,2260
2023-03-11T06:59:55.541Z,2260
2023-03-11T07:00:36.053Z,2248
2023-03-11T07:06:41.015Z,1992
2023-03-11T07:07:21.553Z,1980
2023-03-11T07:08:02.109Z,1964
2023-03-11T07:08:42.681Z,1956
2023-03-11T07:09:23.844Z,1968
2023-03-11T07:10:04.380Z,1992
2023-03-11T07:10:44.928Z,2040
2023-03-11T07:11:25.478Z,2092
2023-03-11T07:12:06.854Z,2132
2023-03-11T07:16:45.922Z,2404
2023-03-11T07:17:26.357Z,2416
2023-03-11T07:18:06.892Z,2424
2023-03-11T07:18:47.442Z,2440
2023-03-11T07:19:27.990Z,2452
2023-03-11T07:20:08.507Z,2464
2023-03-11T07:20:49.010Z,2480
2023-03-11T07:21:30.262Z,2500
2023-03-11T07:22:10.814Z,2524
2023-03-11T07:26:55.593Z,2732
2023-03-11T07:27:36.945Z,2920
2023-03-11T07:28:17.608Z,3340
2023-03-11T07:28:57.974Z,4000
2023-03-11T07:29:38.509Z,4848
2023-03-11T07:31:52.142Z,8044
2023-03-11T07:32:32.611Z,8560
2023-03-11T07:33:13.152Z,8800
2023-03-11T07:33:54.221Z,8832
2023-03-11T07:34:34.762Z,8888
2023-03-11T07:35:15.309Z,8960
2023-03-11T07:35:55.966Z,9140
2023-03-11T07:39:12.415Z,9288
2023-03-11T07:39:52.918Z,9164
2023-03-11T07:40:33.435Z,9036
2023-03-11T07:41:14.256Z,9124
2023-03-11T07:41:54.551Z,9372
2023-03-11T07:42:35.083Z,9672
2023-03-11T07:43:16.104Z,9692
2023-03-11T07:43:56.119Z,9348
2023-03-11T07:44:37.191Z,8292
2023-03-11T07:50:42.059Z,8924
2023-03-11T07:51:22.647Z,10880
2023-03-11T07:52:03.147Z,11808
2023-03-11T07:52:43.698Z,12260
2023-03-11T07:53:24.248Z,12476
2023-03-11T07:56:40.631Z,12760
2023-03-11T07:57:21.152Z,12640
2023-03-11T07:58:01.666Z,12268
2023-03-11T07:58:43.564Z,11360
2023-03-11T07:59:22.736Z,9432
2023-03-11T08:00:03.272Z,6956
2023-03-11T08:00:43.844Z,4908
2023-03-11T08:01:24.419Z,3984
2023-03-11T08:02:04.985Z,3704
2023-03-11T08:02:45.555Z,3700
2023-03-11T08:08:10.524Z,4184
2023-03-11T08:08:51.079Z,4188
2023-03-11T08:09:31.621Z,4112
2023-03-11T08:10:12.193Z,4288
2023-03-11T08:10:53.569Z,4976
2023-03-11T08:11:34.114Z,6080
2023-03-11T08:12:14.626Z,6200
2023-03-11T08:12:55.156Z,6016
2023-03-11T08:13:35.664Z,6240
2023-03-11T08:18:20.316Z,5968
2023-03-11T08:19:00.877Z,5568
2023-03-11T08:19:41.979Z,5124
2023-03-11T08:20:22.507Z,4872
2023-03-11T08:21:03.044Z,4616
2023-03-11T08:21:43.566Z,4436
2023-03-11T08:22:24.096Z,4404
2023-03-11T08:23:04.651Z,4512
2023-03-11T08:23:45.148Z,4532
2023-03-11T08:24:25.696Z,4612
2023-03-11T08:30:30.642Z,21120
2023-03-11T08:31:11.259Z,22016
2023-03-11T08:31:51.652Z,23136
2023-03-11T08:32:32.222Z,22976
2023-03-11T08:33:12.746Z,23680
2023-03-11T08:33:53.328Z,24256
2023-03-11T08:34:33.844Z,24480
2023-03-11T08:35:14.393Z,24544
2023-03-11T08:35:55.012Z,24512
2023-03-11T08:36:35.551Z,24384
2023-03-11T08:42:40.521Z,24704
2023-03-11T08:43:21.024Z,25184
2023-03-11T08:44:01.695Z,25056
2023-03-11T08:44:42.211Z,24224
2023-03-11T08:45:22.761Z,23648
2023-03-11T08:46:03.357Z,23296
2023-03-11T08:48:17.770Z,21472
2023-03-11T08:49:00.862Z,21376
2023-03-11T08:49:38.853Z,21120
2023-03-11T08:50:19.989Z,20960
2023-03-11T08:51:00.490Z,20896
2023-03-11T08:51:41.020Z,20512
2023-03-11T08:54:10.539Z,19424
2023-03-11T08:54:51.098Z,18976
2023-03-11T08:55:31.613Z,18784
2023-03-11T08:56:12.717Z,18592
2023-03-11T08:56:53.258Z,18496
2023-03-11T08:57:33.799Z,18336
2023-03-11T08:58:14.352Z,18240
2023-03-11T09:03:26.484Z,17312
2023-03-11T09:04:07.045Z,17312
2023-03-11T09:04:47.562Z,17280
2023-03-11T09:05:28.100Z,17248
2023-03-11T09:06:08.603Z,17184
2023-03-11T09:08:22.216Z,17184
2023-03-11T09:09:02.757Z,13172
2023-03-11T09:09:44.293Z,8428
2023-03-11T09:10:25.611Z,17408
2023-03-11T09:12:24.801Z,16640
2023-03-11T09:13:05.355Z,16296
2023-03-11T09:13:45.875Z,16284
2023-03-11T09:14:27.223Z,15992
2023-03-11T09:15:07.728Z,15728
2023-03-11T09:15:48.319Z,15416
2023-03-11T09:16:28.910Z,15232
2023-03-11T09:17:09.361Z,15176
2023-03-11T09:17:49.936Z,15240
2023-03-11T09:21:54.625Z,15644
2023-03-11T09:22:35.209Z,15780
2023-03-11T09:24:48.283Z,5612
2023-03-11T09:25:28.838Z,5228
2023-03-11T09:26:09.354Z,5024
2023-03-11T09:26:49.883Z,4872
2023-03-11T09:27:30.439Z,4788
2023-03-11T09:29:44.187Z,4552
2023-03-11T09:30:24.873Z,4600
2023-03-11T09:31:05.267Z,4692
2023-03-11T09:31:45.751Z,4664
2023-03-11T09:32:26.314Z,4640
2023-03-11T09:33:06.770Z,4716
2023-03-11T09:33:47.328Z,4800
2023-03-11T09:34:27.839Z,4836
2023-03-11T09:39:50.084Z,6188
2023-03-11T09:40:30.631Z,6848
2023-03-11T09:41:11.175Z,7972
2023-03-11T09:41:58.180Z,8800
2023-03-11T09:42:32.238Z,17632
2023-03-11T09:43:12.724Z,24512
2023-03-11T09:43:54.018Z,26560
2023-03-11T09:44:35.104Z,25632
2023-03-11T09:49:22.516Z,29728
2023-03-11T09:50:04.046Z,32832
2023-03-11T09:50:45.511Z,7884
2023-03-11T09:56:09.851Z,40128
2023-03-11T09:56:50.402Z,40480
2023-03-11T09:57:30.955Z,40736
2023-03-11T09:58:11.505Z,41344
2023-03-11T09:58:52.067Z,41696
2023-03-11T09:59:32.607Z,41568
2023-03-11T10:00:14.029Z,41728
2023-03-11T10:00:54.547Z,41920
2023-03-11T10:03:07.376Z,42560
2023-03-11T10:03:47.890Z,42912
2023-03-11T10:04:28.448Z,43392
2023-03-11T10:05:09.044Z,44128
2023-03-11T10:05:49.543Z,44832
2023-03-11T10:06:30.129Z,45504
2023-03-11T10:07:10.668Z,46240
2023-03-11T10:07:51.191Z,46784
2023-03-11T10:08:32.269Z,47168
2023-03-11T10:12:13.272Z,46432
2023-03-11T10:12:53.791Z,46304
2023-03-11T10:13:34.348Z,46400
2023-03-11T10:14:16.411Z,46304
2023-03-11T10:16:34.761Z,47104
2023-03-11T10:17:15.221Z,47168
2023-03-11T10:17:56.362Z,47104
2023-03-11T10:18:36.848Z,46976
2023-03-11T10:19:17.377Z,47072
2023-03-11T10:19:57.933Z,47456
2023-03-11T10:22:11.284Z,47904
2023-03-11T10:22:51.820Z,47392
2023-03-11T10:23:33.181Z,47168
2023-03-11T10:24:13.734Z,47584
2023-03-11T10:26:32.194Z,48000
2023-03-11T10:27:12.714Z,47936
2023-03-11T10:27:53.260Z,47264
2023-03-11T10:28:33.803Z,47264
2023-03-11T10:29:14.332Z,47424
2023-03-11T10:29:54.844Z,31200
2023-03-11T10:30:35.396Z,17696
2023-03-11T10:31:17.832Z,40384
2023-03-11T10:35:17.106Z,44768
2023-03-11T10:35:57.683Z,41056
2023-03-11T10:36:38.171Z,29472
2023-03-11T10:37:18.723Z,14312
2023-03-11T10:37:59.236Z,14464
2023-03-11T10:38:39.753Z,13044
2023-03-11T10:39:20.814Z,12468
2023-03-11T10:40:01.340Z,13380
2023-03-11T10:40:41.905Z,13644
2023-03-11T10:46:02.373Z,22496
2023-03-11T10:46:42.831Z,49120
2023-03-11T10:47:23.365Z,48960
2023-03-11T10:48:03.883Z,49280
2023-03-11T10:48:44.447Z,48192
2023-03-11T10:49:25.497Z,43392
2023-03-11T10:50:06.020Z,24992
2023-03-11T10:50:46.571Z,48128
2023-03-11T10:51:27.148Z,48672
2023-03-11T10:54:05.383Z,22368
2023-03-11T10:54:45.891Z,41344
2023-03-11T10:55:26.434Z,36224
2023-03-11T10:56:06.982Z,20448
2023-03-11T10:56:47.499Z,40416
2023-03-11T10:57:28.019Z,26752
2023-03-11T10:58:08.582Z,29536
2023-03-11T10:58:49.113Z,48416
2023-03-11T11:01:05.939Z,47072
2023-03-11T11:01:46.386Z,47168
2023-03-11T11:02:26.956Z,46880
2023-03-11T11:03:07.581Z,47232
2023-03-11T11:03:48.134Z,46880
2023-03-11T11:04:28.734Z,46688
2023-03-11T11:05:09.251Z,46112
2023-03-11T11:05:49.799Z,46048
2023-03-11T11:06:30.365Z,46432
2023-03-11T11:12:31.839Z,46688
2023-03-11T11:13:12.384Z,43072
2023-03-11T11:13:52.935Z,47776
2023-03-11T11:14:33.482Z,47072
2023-03-11T11:15:14.034Z,46496
2023-03-11T11:15:54.588Z,45792
2023-03-11T11:19:03.304Z,9228
2023-03-11T11:21:34.273Z,8472
2023-03-11T11:22:17.065Z,8732
2023-03-11T11:22:59.288Z,9232
2023-03-11T11:23:41.387Z,9764
2023-03-11T11:25:39.125Z,11800
2023-03-11T11:26:19.657Z,19232
2023-03-11T11:27:00.194Z,28736
2023-03-11T11:27:40.726Z,40352
2023-03-11T11:28:21.378Z,32000
2023-03-11T11:29:01.871Z,52320
2023-03-11T11:29:42.409Z,50464
2023-03-11T11:30:22.972Z,49216
2023-03-11T11:31:03.701Z,48416
2023-03-11T11:31:44.050Z,47936
2023-03-11T11:37:09.170Z,15180
2023-03-11T11:37:49.710Z,15396
2023-03-11T11:38:30.227Z,15308
2023-03-11T11:39:10.738Z,22976
2023-03-11T11:39:51.300Z,17792
2023-03-11T11:40:31.826Z,36768
2023-03-11T11:42:45.174Z,47552
2023-03-11T11:43:25.684Z,47520
2023-03-11T11:44:06.227Z,47680
2023-03-11T11:44:46.713Z,18848
2023-03-11T11:45:27.248Z,12876
2023-03-11T11:47:40.022Z,11856
2023-03-11T11:48:20.530Z,11168
2023-03-11T11:49:01.062Z,10620
2023-03-11T11:49:41.626Z,10268
2023-03-11T11:50:22.172Z,9940
2023-03-11T11:51:02.713Z,9792
2023-03-11T11:53:15.497Z,9896
2023-03-11T11:53:56.065Z,9916
2023-03-11T11:54:36.612Z,10288
2023-03-11T11:55:17.782Z,11096
2023-03-11T11:55:58.385Z,13188
2023-03-11T11:58:14.156Z,16744
2023-03-11T11:58:54.748Z,16064
2023-03-11T11:59:35.229Z,15924
2023-03-11T12:00:16.551Z,38144
2023-03-11T12:00:57.096Z,15664
2023-03-11T12:01:37.599Z,13536
2023-03-11T12:02:18.165Z,14544
2023-03-11T12:02:58.718Z,12772
2023-03-11T12:03:39.271Z,12404
2023-03-11T12:06:18.308Z,13284
2023-03-11T12:06:58.840Z,10940
2023-03-11T12:07:39.381Z,10588
2023-03-11T12:08:19.895Z,10148
2023-03-11T12:09:00.432Z,9644
2023-03-11T12:09:40.954Z,9208
2023-03-11T12:10:23.556Z,8696
2023-03-11T12:11:01.985Z,8708
2023-03-11T12:11:42.498Z,8604
2023-03-11T12:16:22.806Z,9168
2023-03-11T12:17:04.190Z,9312
2023-03-11T12:17:43.871Z,9564
2023-03-11T12:18:24.408Z,9884
2023-03-11T12:19:04.956Z,10304
2023-03-11T12:21:17.720Z,11084
2023-03-11T12:21:58.292Z,11060
2023-03-11T12:22:38.864Z,11300
2023-03-11T12:23:19.393Z,11516
2023-03-11T12:24:00.024Z,11912
2023-03-11T12:24:40.510Z,16032
2023-03-11T12:26:54.087Z,11492
2023-03-11T12:27:34.606Z,11468
2023-03-11T12:28:15.144Z,11312
2023-03-11T12:28:55.686Z,11564
2023-03-11T12:29:36.184Z,11688
2023-03-11T12:30:16.711Z,11972
2023-03-11T12:30:57.258Z,13928
2023-03-11T12:31:37.852Z,42208
2023-03-11T12:32:18.312Z,42848
2023-03-11T12:32:58.809Z,39904
2023-03-11T12:37:38.943Z,40704
2023-03-11T12:38:19.447Z,40352
2023-03-11T12:38:59.995Z,40480
2023-03-11T12:39:40.537Z,40480
2023-03-11T12:40:21.080Z,40480
2023-03-11T12:41:01.623Z,40672
2023-03-11T12:41:42.274Z,40384
2023-03-11T12:42:22.670Z,40096
2023-03-11T12:43:03.181Z,39296
2023-03-11T12:43:43.721Z,38848
2023-03-11T12:49:49.086Z,27136
2023-03-11T12:50:29.674Z,26752
2023-03-11T12:51:10.202Z,29248
2023-03-11T12:51:50.741Z,14012
2023-03-11T12:52:31.252Z,12380
2023-03-11T12:53:13.599Z,18496
2023-03-11T12:53:52.306Z,17536
2023-03-11T12:56:05.234Z,16112
2023-03-11T12:56:45.757Z,32032
2023-03-11T12:57:26.296Z,31904
2023-03-11T12:58:06.874Z,31360
2023-03-11T12:58:48.257Z,22336
2023-03-11T12:59:28.820Z,7704
2023-03-11T13:00:09.348Z,13424
2023-03-11T13:00:49.880Z,6996
2023-03-11T13:07:35.290Z,27136
2023-03-11T13:08:15.841Z,26976
2023-03-11T13:08:56.402Z,27104
2023-03-11T13:09:36.967Z,26944
2023-03-11T13:10:17.601Z,26848
2023-03-11T13:10:58.171Z,26752
2023-03-11T13:11:38.769Z,26848
2023-03-11T13:12:19.297Z,27296
2023-03-11T13:14:32.105Z,11912
2023-03-11T13:15:12.631Z,28032
2023-03-11T13:15:53.405Z,27968
2023-03-11T13:16:33.783Z,21952
2023-03-11T13:17:14.312Z,25504
2023-03-11T13:17:54.845Z,27168
2023-03-11T13:18:35.414Z,25824
2023-03-11T13:19:16.003Z,23296
2023-03-11T13:19:56.599Z,22368
2023-03-11T13:20:37.193Z,25760
2023-03-11T13:24:37.092Z,23424
2023-03-11T13:25:17.618Z,23360
2023-03-11T13:25:58.176Z,23168
2023-03-11T13:26:38.745Z,23008
2023-03-11T13:27:19.277Z,22688
2023-03-11T13:27:59.821Z,22464
2023-03-11T13:31:45.206Z,21952
2023-03-11T13:32:25.686Z,21984
2023-03-11T13:33:06.201Z,22112
2023-03-11T13:33:46.752Z,22336
2023-03-11T13:34:27.298Z,22080
2023-03-11T13:35:07.960Z,21632
2023-03-11T13:35:48.515Z,21696
2023-03-11T13:36:28.975Z,21376
2023-03-11T13:37:09.511Z,21184
2023-03-11T13:39:22.581Z,20000
2023-03-11T13:40:03.095Z,15020
2023-03-11T13:40:43.634Z,12208
2023-03-11T13:41:24.172Z,14680
2023-03-11T13:42:04.729Z,18560
2023-03-11T13:42:45.280Z,18464
2023-03-11T13:43:25.842Z,11924
2023-03-11T13:44:07.264Z,16300
2023-03-11T13:48:38.879Z,15764
2023-03-11T13:49:21.853Z,14620
2023-03-11T13:50:04.969Z,7672
2023-03-11T13:50:46.356Z,7052
2023-03-11T13:52:59.920Z,8100
2023-03-11T13:53:40.476Z,8372
2023-03-11T13:54:21.003Z,13764
2023-03-11T13:55:01.619Z,10468
2023-03-11T13:55:43.042Z,16124
2023-03-11T13:57:55.875Z,18560
2023-03-11T13:58:36.476Z,17792
2023-03-11T13:59:17.032Z,16476
2023-03-11T13:59:57.624Z,16556
2023-03-11T14:00:38.257Z,14764
2023-03-11T14:01:18.829Z,17408
2023-03-11T14:02:00.051Z,14408
2023-03-11T14:02:40.616Z,15772
2023-03-11T14:09:26.007Z,12504
2023-03-11T14:10:07.401Z,12632
2023-03-11T14:10:47.927Z,16544
2023-03-11T14:11:28.476Z,13712
2023-03-11T14:12:09.026Z,13508
2023-03-11T14:12:49.564Z,13780
2023-03-11T14:13:30.127Z,17472
2023-03-11T14:14:10.629Z,16112
2023-03-11T14:20:56.108Z,11436
2023-03-11T14:21:36.601Z,11888
2023-03-11T14:22:17.113Z,11892
2023-03-11T14:22:57.634Z,12328
2023-03-11T14:23:38.211Z,13068
2023-03-11T14:25:51.512Z,11888
2023-03-11T14:26:32.064Z,12316
2023-03-11T14:27:13.192Z,13336
2023-03-11T14:27:53.738Z,12812
2023-03-11T14:30:26.239Z,11704
2023-03-11T14:31:06.714Z,10928
2023-03-11T14:31:48.225Z,11284
2023-03-11T14:32:28.830Z,11308
2023-03-11T14:34:41.509Z,11096
2023-03-11T14:35:22.044Z,11032
2023-03-11T14:36:02.616Z,10356
2023-03-11T14:36:43.117Z,9872
2023-03-11T14:39:18.329Z,10696
2023-03-11T14:39:58.884Z,11316
2023-03-11T14:40:39.593Z,11168
2023-03-11T14:41:19.993Z,11000
2023-03-11T14:42:00.539Z,11308
2023-03-11T14:42:41.090Z,10312
2023-03-11T14:43:21.632Z,10188
2023-03-11T14:44:02.190Z,9884
2023-03-11T14:44:42.748Z,10088
2023-03-11T14:45:23.289Z,9632
2023-03-11T14:50:48.187Z,7856
2023-03-11T14:51:28.743Z,7748
2023-03-11T14:52:09.282Z,7988
2023-03-11T14:52:49.806Z,8016
2023-03-11T14:53:30.350Z,8316
2023-03-11T14:54:10.869Z,8080
2023-03-11T14:56:23.983Z,8504
2023-03-11T14:57:04.541Z,7848
2023-03-11T14:57:45.082Z,7780
2023-03-11T14:58:25.631Z,7624
2023-03-11T14:59:07.875Z,7596
2023-03-11T14:59:46.731Z,7668
2023-03-11T15:00:27.291Z,7416
2023-03-11T15:02:42.038Z,7520
2023-03-11T15:03:22.615Z,7372
2023-03-11T15:04:03.126Z,7212
2023-03-11T15:04:45.018Z,7252
2023-03-11T15:06:58.686Z,6276
2023-03-11T15:07:40.760Z,6004
2023-03-11T15:08:21.314Z,5792
2023-03-11T15:09:01.893Z,5620
2023-03-11T15:09:42.411Z,5444
2023-03-11T15:11:40.072Z,5388
2023-03-11T15:12:20.605Z,5456
2023-03-11T15:13:01.158Z,5508
2023-03-11T15:13:41.696Z,5544
2023-03-11T15:14:22.222Z,5528
2023-03-11T15:15:02.723Z,5464
2023-03-11T15:15:43.257Z,5428